sensor_id;sensor_type;location;lat;lon;timestamp;pressure;altitude;pressure_sealevel;temperature;humidity
17450;BME280;8842;51.244;7.102;2022-07-24T00:05:36;99796.68;;;18.10;100.00
17450;BME280;8842;51.244;7.102;2022-07-24T00:15:52;99795.24;;;17.98;100.00
17450;BME280;8842;51.244;7.102;2022-07-24T00:26:10;99799.19;;;18.08;100.00
17450;BME280;8842;51.244;7.102;2022-07-24T00:36:27;99794.37;;;17.72;100.00
17450;BME280;8842;51.244;7.102;2022-07-24T00:46:47;99789.30;;;17.69;100.00
17450;BME280;8842;51.244;7.102;2022-07-24T00:57:04;99787.67;;;17.54;100.00
17450;BME280;8842;51.244;7.102;2022-07-24T01:07:20;99787.25;;;17.45;100.00
17450;BME280;8842;51.244;7.102;2022-07-24T01:17:39;99782.05;;;17.34;100.00
17450;BME280;8842;51.244;7.102;2022-07-24T01:27:54;99797.13;;;17.31;100.00
17450;BME280;8842;51.244;7.102;2022-07-24T01:38:13;99790.05;;;17.26;100.00
17450;BME280;8842;51.244;7.102;2022-07-24T01:48:32;99777.20;;;17.16;100.00
17450;BME280;8842;51.244;7.102;2022-07-24T01:58:50;99778.33;;;17.00;100.00
17450;BME280;8842;51.244;7.102;2022-07-24T02:14:18;99760.59;;;16.90;100.00
17450;BME280;8842;51.244;7.102;2022-07-24T02:24:34;99765.14;;;16.89;100.00
17450;BME280;8842;51.244;7.102;2022-07-24T02:34:58;99767.12;;;16.87;100.00
17450;BME280;8842;51.244;7.102;2022-07-24T02:45:18;99761.27;;;16.88;100.00
17450;BME280;8842;51.244;7.102;2022-07-24T02:55:37;99753.36;;;16.86;100.00
17450;BME280;8842;51.244;7.102;2022-07-24T03:05:53;99753.36;;;16.86;100.00
17450;BME280;8842;51.244;7.102;2022-07-24T03:16:12;99745.98;;;16.88;100.00
17450;BME280;8842;51.244;7.102;2022-07-24T03:26:29;99742.97;;;16.87;100.00
17450;BME280;8842;51.244;7.102;2022-07-24T03:36:48;99744.31;;;16.87;100.00
17450;BME280;8842;51.244;7.102;2022-07-24T03:52:18;99744.34;;;16.91;100.00
17450;BME280;8842;51.244;7.102;2022-07-24T04:07:52;99743.68;;;16.76;100.00
17450;BME280;8842;51.244;7.102;2022-07-24T04:18:08;99756.65;;;16.80;100.00
17450;BME280;8842;51.244;7.102;2022-07-24T04:28:30;99756.57;;;16.90;100.00
17450;BME280;8842;51.244;7.102;2022-07-24T04:44:04;99756.17;;;17.12;100.00
17450;BME280;8842;51.244;7.102;2022-07-24T04:54:19;99750.45;;;17.59;100.00
17450;BME280;8842;51.244;7.102;2022-07-24T05:04:36;99746.22;;;18.26;100.00
17450;BME280;8842;51.244;7.102;2022-07-24T05:14:52;99752.91;;;18.81;100.00
17450;BME280;8842;51.244;7.102;2022-07-24T05:30:20;99745.92;;;19.12;100.00
17450;BME280;8842;51.244;7.102;2022-07-24T05:40:48;99751.55;;;19.42;99.74
17450;BME280;8842;51.244;7.102;2022-07-24T05:51:04;99745.69;;;19.71;99.07
17450;BME280;8842;51.244;7.102;2022-07-24T06:01:25;99753.92;;;19.86;100.00
17450;BME280;8842;51.244;7.102;2022-07-24T06:11:41;99748.69;;;19.88;100.00
17450;BME280;8842;51.244;7.102;2022-07-24T06:21:57;99752.41;;;20.07;100.00
17450;BME280;8842;51.244;7.102;2022-07-24T06:32:13;99743.12;;;20.18;100.00
17450;BME280;8842;51.244;7.102;2022-07-24T06:42:29;99744.48;;;20.22;100.00
17450;BME280;8842;51.244;7.102;2022-07-24T06:52:46;99748.57;;;20.56;99.80
17450;BME280;8842;51.244;7.102;2022-07-24T07:03:02;99762.16;;;21.17;89.42
17450;BME280;8842;51.244;7.102;2022-07-24T07:13:17;99777.84;;;21.52;89.72
17450;BME280;8842;51.244;7.102;2022-07-24T07:18:22;99773.70;;;21.60;87.69
17450;BME280;8842;51.244;7.102;2022-07-24T07:28:38;99774.34;;;22.08;85.82
17450;BME280;8842;51.244;7.102;2022-07-24T07:38:54;99777.95;;;22.56;84.38
17450;BME280;8842;51.244;7.102;2022-07-24T07:49:12;99777.77;;;23.22;79.89
17450;BME280;8842;51.244;7.102;2022-07-24T07:59:28;99775.81;;;23.66;76.43
17450;BME280;8842;51.244;7.102;2022-07-24T08:09:45;99776.42;;;24.31;72.20
17450;BME280;8842;51.244;7.102;2022-07-24T08:20:01;99775.50;;;26.26;64.45
17450;BME280;8842;51.244;7.102;2022-07-24T08:30:18;99768.38;;;27.96;59.46
17450;BME280;8842;51.244;7.102;2022-07-24T08:40:35;99768.77;;;28.24;55.22
17450;BME280;8842;51.244;7.102;2022-07-24T08:51:04;99762.95;;;28.39;54.46
17450;BME280;8842;51.244;7.102;2022-07-24T09:01:27;99760.50;;;29.37;51.73
17450;BME280;8842;51.244;7.102;2022-07-24T09:12:13;99752.16;;;30.23;50.84
17450;BME280;8842;51.244;7.102;2022-07-24T09:22:41;99733.64;;;30.99;49.35
17450;BME280;8842;51.244;7.102;2022-07-24T09:33:04;99730.66;;;31.01;48.63
17450;BME280;8842;51.244;7.102;2022-07-24T09:43:21;99717.66;;;30.96;47.26
17450;BME280;8842;51.244;7.102;2022-07-24T09:53:40;99715.65;;;31.31;48.12
17450;BME280;8842;51.244;7.102;2022-07-24T10:04:01;99705.89;;;31.26;47.36
17450;BME280;8842;51.244;7.102;2022-07-24T10:14:18;99694.72;;;31.16;47.81
17450;BME280;8842;51.244;7.102;2022-07-24T10:30:20;99676.08;;;31.60;47.08
17450;BME280;8842;51.244;7.102;2022-07-24T10:40:42;99671.15;;;31.18;49.29
17450;BME280;8842;51.244;7.102;2022-07-24T10:51:21;99666.30;;;30.94;50.40
17450;BME280;8842;51.244;7.102;2022-07-24T11:01:42;99659.66;;;30.67;50.58
17450;BME280;8842;51.244;7.102;2022-07-24T11:06:49;99660.70;;;30.52;50.76
17450;BME280;8842;51.244;7.102;2022-07-24T11:17:39;99652.21;;;31.30;48.85
17450;BME280;8842;51.244;7.102;2022-07-24T11:27:58;99631.65;;;31.47;49.40
17450;BME280;8842;51.244;7.102;2022-07-24T11:38:15;99632.84;;;31.70;45.66
17450;BME280;8842;51.244;7.102;2022-07-24T11:48:32;99621.52;;;31.33;46.35
17450;BME280;8842;51.244;7.102;2022-07-24T11:53:36;99611.80;;;31.28;45.15
17450;BME280;8842;51.244;7.102;2022-07-24T11:58:40;99607.27;;;31.22;46.19
17450;BME280;8842;51.244;7.102;2022-07-24T12:03:49;99598.54;;;31.25;45.63
17450;BME280;8842;51.244;7.102;2022-07-24T12:14:14;99590.32;;;31.39;46.72
17450;BME280;8842;51.244;7.102;2022-07-24T12:19:20;99596.01;;;31.07;47.11
17450;BME280;8842;51.244;7.102;2022-07-24T12:24:26;99591.77;;;30.60;49.47
17450;BME280;8842;51.244;7.102;2022-07-24T12:34:43;99574.28;;;30.24;47.77
17450;BME280;8842;51.244;7.102;2022-07-24T12:45:07;99564.58;;;29.96;48.41
17450;BME280;8842;51.244;7.102;2022-07-24T12:55:25;99547.44;;;29.11;51.04
17450;BME280;8842;51.244;7.102;2022-07-24T13:05:42;99542.65;;;28.85;51.88
17450;BME280;8842;51.244;7.102;2022-07-24T13:16:00;99515.41;;;28.49;51.88
17450;BME280;8842;51.244;7.102;2022-07-24T13:21:06;99512.38;;;28.48;52.32
17450;BME280;8842;51.244;7.102;2022-07-24T13:31:22;99499.63;;;28.72;52.88
17450;BME280;8842;51.244;7.102;2022-07-24T13:41:39;99493.06;;;28.93;52.64
17450;BME280;8842;51.244;7.102;2022-07-24T13:46:44;99486.20;;;28.82;52.82
17450;BME280;8842;51.244;7.102;2022-07-24T13:51:48;99483.77;;;28.83;52.19
17450;BME280;8842;51.244;7.102;2022-07-24T13:56:53;99475.02;;;28.72;53.58
17450;BME280;8842;51.244;7.102;2022-07-24T14:07:12;99460.73;;;28.70;52.93
17450;BME280;8842;51.244;7.102;2022-07-24T14:12:16;99456.81;;;28.45;54.81
17450;BME280;8842;51.244;7.102;2022-07-24T14:22:32;99441.66;;;28.43;53.18
17450;BME280;8842;51.244;7.102;2022-07-24T14:32:48;99422.86;;;28.64;53.44
17450;BME280;8842;51.244;7.102;2022-07-24T14:43:04;99408.41;;;28.66;52.22
17450;BME280;8842;51.244;7.102;2022-07-24T14:48:08;99401.57;;;28.66;51.70
17450;BME280;8842;51.244;7.102;2022-07-24T14:53:12;99396.38;;;28.76;52.34
17450;BME280;8842;51.244;7.102;2022-07-24T15:03:27;99376.48;;;28.90;55.73
17450;BME280;8842;51.244;7.102;2022-07-24T15:08:32;99372.42;;;28.92;53.27
17450;BME280;8842;51.244;7.102;2022-07-24T15:13:36;99366.30;;;28.99;52.99
17450;BME280;8842;51.244;7.102;2022-07-24T15:23:54;99349.66;;;29.13;50.22
17450;BME280;8842;51.244;7.102;2022-07-24T15:34:10;99342.96;;;29.06;51.25
17450;BME280;8842;51.244;7.102;2022-07-24T15:44:26;99331.30;;;29.11;50.78
17450;BME280;8842;51.244;7.102;2022-07-24T15:54:42;99313.88;;;28.79;50.19
17450;BME280;8842;51.244;7.102;2022-07-24T16:04:57;99292.93;;;28.50;53.32
17450;BME280;8842;51.244;7.102;2022-07-24T16:15:14;99292.06;;;28.59;52.10
17450;BME280;8842;51.244;7.102;2022-07-24T16:25:30;99277.94;;;28.87;51.63
17450;BME280;8842;51.244;7.102;2022-07-24T16:35:47;99275.53;;;28.88;51.00
17450;BME280;8842;51.244;7.102;2022-07-24T16:46:03;99253.83;;;28.73;50.26
17450;BME280;8842;51.244;7.102;2022-07-24T16:56:21;99241.73;;;28.57;50.87
17450;BME280;8842;51.244;7.102;2022-07-24T17:06:38;99231.41;;;28.39;51.01
17450;BME280;8842;51.244;7.102;2022-07-24T17:16:54;99223.06;;;28.66;50.13
17450;BME280;8842;51.244;7.102;2022-07-24T17:27:10;99226.03;;;28.64;50.89
17450;BME280;8842;51.244;7.102;2022-07-24T17:37:26;99220.92;;;28.56;51.17
17450;BME280;8842;51.244;7.102;2022-07-24T17:47:41;99210.83;;;28.57;52.04
17450;BME280;8842;51.244;7.102;2022-07-24T17:57:58;99210.65;;;28.49;52.38
17450;BME280;8842;51.244;7.102;2022-07-24T18:08:14;99207.23;;;28.45;51.71
17450;BME280;8842;51.244;7.102;2022-07-24T18:18:29;99191.61;;;28.31;53.33
17450;BME280;8842;51.244;7.102;2022-07-24T18:28:44;99188.59;;;28.30;52.91
17450;BME280;8842;51.244;7.102;2022-07-24T18:38:59;99181.55;;;28.00;54.53
17450;BME280;8842;51.244;7.102;2022-07-24T18:49:18;99176.41;;;28.12;55.81
17450;BME280;8842;51.244;7.102;2022-07-24T18:59:37;99174.81;;;28.02;55.69
17450;BME280;8842;51.244;7.102;2022-07-24T19:09:53;99160.39;;;27.52;57.51
17450;BME280;8842;51.244;7.102;2022-07-24T19:20:11;99167.67;;;27.28;56.97
17450;BME280;8842;51.244;7.102;2022-07-24T19:30:33;99162.08;;;27.05;58.30
17450;BME280;8842;51.244;7.102;2022-07-24T19:40:49;99162.55;;;26.84;62.63
17450;BME280;8842;51.244;7.102;2022-07-24T19:51:05;99168.83;;;26.30;66.79
17450;BME280;8842;51.244;7.102;2022-07-24T20:01:24;99168.11;;;26.08;66.76
17450;BME280;8842;51.244;7.102;2022-07-24T20:11:41;99161.75;;;25.49;71.52
17450;BME280;8842;51.244;7.102;2022-07-24T20:21:57;99159.47;;;25.46;70.43
17450;BME280;8842;51.244;7.102;2022-07-24T20:32:13;99170.55;;;25.29;72.94
17450;BME280;8842;51.244;7.102;2022-07-24T20:42:29;99149.66;;;24.85;75.26
17450;BME280;8842;51.244;7.102;2022-07-24T20:52:45;99144.73;;;24.91;74.32
17450;BME280;8842;51.244;7.102;2022-07-24T21:03:01;99145.00;;;24.99;73.99
17450;BME280;8842;51.244;7.102;2022-07-24T21:13:16;99133.50;;;24.97;74.76
17450;BME280;8842;51.244;7.102;2022-07-24T21:23:33;99119.56;;;24.65;76.53
17450;BME280;8842;51.244;7.102;2022-07-24T21:33:49;99118.89;;;24.41;79.58
17450;BME280;8842;51.244;7.102;2022-07-24T21:54:30;99109.31;;;24.03;76.68
17450;BME280;8842;51.244;7.102;2022-07-24T22:04:46;99094.77;;;23.87;75.84
17450;BME280;8842;51.244;7.102;2022-07-24T22:15:02;99082.39;;;23.82;73.02
17450;BME280;8842;51.244;7.102;2022-07-24T22:25:21;99082.36;;;23.89;70.39
17450;BME280;8842;51.244;7.102;2022-07-24T22:35:39;99074.20;;;24.15;67.21
17450;BME280;8842;51.244;7.102;2022-07-24T22:45:55;99073.80;;;24.33;65.62
17450;BME280;8842;51.244;7.102;2022-07-24T22:56:13;99070.15;;;24.59;64.45
17450;BME280;8842;51.244;7.102;2022-07-24T23:06:29;99056.78;;;24.57;64.03
17450;BME280;8842;51.244;7.102;2022-07-24T23:16:45;99051.19;;;24.52;66.30
17450;BME280;8842;51.244;7.102;2022-07-24T23:27:01;99038.56;;;24.27;68.34
17450;BME280;8842;51.244;7.102;2022-07-24T23:37:23;99030.64;;;24.19;65.77
17450;BME280;8842;51.244;7.102;2022-07-24T23:47:39;99023.94;;;24.21;67.08
17450;BME280;8842;51.244;7.102;2022-07-24T23:57:55;99020.43;;;24.14;66.69
